createdAt,value
2018-11-09T00:01:41.727Z,32.93
2018-11-09T00:04:11.551Z,38.13
2018-11-09T00:06:41.792Z,40.80
2018-11-09T00:09:11.896Z,36.03
2018-11-09T00:11:41.283Z,37.10
2018-11-09T00:14:11.107Z,27.60
2018-11-09T00:16:41.223Z,46.13
2018-11-09T00:19:10.663Z,41.83
2018-11-09T00:21:41.181Z,39.80
2018-11-09T00:24:10.997Z,115.37
2018-11-09T00:26:41.087Z,45.70
2018-11-09T00:29:11.429Z,51.43
2018-11-09T00:31:41.230Z,55.70
2018-11-09T00:34:11.039Z,49.90
2018-11-09T00:36:40.940Z,42.53
2018-11-09T00:39:10.937Z,42.73
2018-11-09T00:41:40.958Z,42.93
2018-11-09T00:44:11.122Z,36.40
2018-11-09T00:46:40.989Z,37.87
2018-11-09T00:49:10.430Z,42.97
2018-11-09T00:51:40.558Z,36.77
2018-11-09T00:54:10.867Z,50.77
2018-11-09T00:56:41.080Z,42.17
2018-11-09T00:59:11.224Z,47.50
2018-11-09T01:01:40.668Z,39.47
2018-11-09T01:04:10.516Z,38.10
2018-11-09T01:06:41.235Z,38.20
2018-11-09T01:09:11.992Z,35.23
2018-11-09T01:11:41.307Z,35.97
2018-11-09T01:14:11.160Z,33.63
2018-11-09T01:16:40.647Z,53.13
2018-11-09T01:19:10.129Z,39.37
2018-11-09T01:21:40.003Z,40.33
2018-11-09T01:24:09.849Z,34.20
2018-11-09T01:26:39.276Z,35.57
2018-11-09T01:29:08.775Z,33.23
2018-11-09T01:31:39.383Z,35.10
2018-11-09T01:34:08.883Z,30.67
2018-11-09T01:36:39.152Z,40.27
2018-11-09T01:39:11.561Z,38.43
2018-11-09T01:41:41.640Z,40.80
2018-11-09T01:44:11.188Z,39.87
2018-11-09T01:46:40.973Z,39.27
2018-11-09T01:49:35.446Z,32.87
2018-11-09T01:52:23.226Z,35.50
2018-11-09T01:54:52.789Z,38.90
2018-11-09T01:57:22.398Z,64.60
2018-11-09T01:59:52.890Z,49.73
2018-11-09T02:02:22.531Z,53.40
2018-11-09T02:04:52.359Z,59.07
2018-11-09T02:07:21.921Z,60.20
2018-11-09T02:09:51.384Z,56.20
2018-11-09T02:12:21.892Z,54.57
2018-11-09T02:14:51.703Z,63.60
2018-11-09T02:17:21.592Z,62.90
2018-11-09T02:19:51.337Z,56.13
2018-11-09T02:22:21.509Z,59.80
2018-11-09T02:24:50.964Z,64.70
2018-11-09T02:27:21.280Z,63.47
2018-11-09T02:29:51.057Z,60.53
2018-11-09T02:32:21.261Z,68.20
2018-11-09T02:34:51.638Z,61.00
2018-11-09T02:37:21.121Z,63.07
2018-11-09T02:39:50.873Z,67.57
2018-11-09T02:42:20.826Z,57.80
2018-11-09T02:44:50.580Z,64.37
2018-11-09T02:47:20.378Z,52.27
2018-11-09T02:49:49.800Z,61.00
2018-11-09T02:52:19.286Z,85.33
2018-11-09T02:54:48.756Z,64.03
2018-11-09T02:57:18.198Z,64.47
2018-11-09T02:59:47.696Z,72.27
2018-11-09T03:02:17.168Z,70.60
2018-11-09T03:04:46.932Z,80.90
2018-11-09T03:07:16.417Z,64.93
2018-11-09T03:09:46.219Z,73.43
2018-11-09T03:12:15.775Z,76.27
2018-11-09T03:14:45.768Z,82.93
2018-11-09T03:17:15.296Z,92.93
2018-11-09T03:19:45.173Z,67.03
2018-11-09T03:22:14.614Z,82.33
2018-11-09T03:24:44.071Z,88.33
2018-11-09T03:27:13.805Z,76.07
2018-11-09T03:29:43.529Z,70.53
2018-11-09T03:32:13.064Z,73.60
2018-11-09T03:34:44.006Z,72.13
2018-11-09T03:37:13.847Z,68.12
2018-11-09T03:39:43.943Z,80.43
2018-11-09T03:42:14.783Z,88.43
2018-11-09T03:44:44.971Z,80.13
2018-11-09T03:47:15.067Z,71.17
2018-11-09T03:49:45.242Z,77.43
2018-11-09T03:52:15.076Z,73.17
2018-11-09T03:54:45.175Z,56.00
2018-11-09T03:57:18.873Z,71.23
2018-11-09T03:59:51.735Z,92.80
2018-11-09T04:02:31.001Z,68.00
2018-11-09T04:05:00.822Z,68.80
2018-11-09T04:07:33.687Z,78.17
2018-11-09T04:10:03.812Z,63.83
2018-11-09T04:12:35.055Z,65.67
2018-11-09T04:15:04.690Z,71.40
2018-11-09T04:17:34.167Z,62.53
2018-11-09T04:20:03.999Z,62.47
2018-11-09T04:22:33.795Z,74.40
2018-11-09T04:25:03.227Z,80.17
2018-11-09T04:27:33.331Z,66.47
2018-11-09T04:30:02.814Z,72.30
2018-11-09T04:32:32.288Z,66.83
2018-11-09T04:35:02.078Z,87.00
2018-11-09T04:37:31.510Z,73.30
2018-11-09T04:40:01.688Z,79.57
2018-11-09T04:42:31.468Z,64.93
2018-11-09T04:45:01.233Z,77.03
2018-11-09T04:47:31.407Z,83.63
2018-11-09T04:50:01.587Z,72.33
2018-11-09T04:52:32.140Z,74.87
2018-11-09T04:55:02.044Z,75.57
2018-11-09T04:57:32.199Z,88.60
2018-11-09T05:00:02.301Z,76.70
2018-11-09T05:02:51.067Z,76.17
2018-11-09T05:05:20.530Z,71.57
2018-11-09T05:07:50.429Z,67.13
2018-11-09T05:10:19.989Z,71.60
2018-11-09T05:13:08.968Z,73.30
2018-11-09T05:15:38.927Z,71.97
2018-11-09T05:18:27.926Z,69.30
2018-11-09T05:20:57.832Z,67.60
2018-11-09T05:23:27.920Z,81.97
2018-11-09T05:25:57.815Z,78.00
2018-11-09T05:28:27.286Z,85.37
2018-11-09T05:30:56.801Z,88.77
2018-11-09T05:33:26.630Z,87.10
2018-11-09T05:35:56.897Z,107.87
2018-11-09T05:38:27.286Z,102.87
2018-11-09T05:40:57.188Z,83.00
2018-11-09T05:43:26.691Z,91.40
2018-11-09T05:45:56.148Z,103.00
2018-11-09T05:48:26.348Z,102.60
2018-11-09T05:50:55.875Z,103.20
2018-11-09T05:53:25.579Z,87.97
2018-11-09T05:55:55.789Z,89.00
2018-11-09T05:58:25.260Z,103.33
2018-11-09T06:00:54.714Z,113.57
2018-11-09T06:03:24.840Z,94.13
2018-11-09T06:05:54.317Z,102.17
2018-11-09T06:08:24.260Z,90.27
2018-11-09T06:10:54.153Z,95.00
2018-11-09T06:13:23.648Z,99.13
2018-11-09T06:15:53.106Z,84.53
2018-11-09T06:18:22.994Z,100.37
2018-11-09T06:20:52.807Z,100.53
2018-11-09T06:23:22.549Z,115.50
2018-11-09T06:25:52.025Z,98.90
2018-11-09T06:28:21.748Z,100.30
2018-11-09T06:30:51.927Z,93.93
2018-11-09T06:33:22.067Z,93.17
2018-11-09T06:35:53.121Z,119.43
2018-11-09T06:38:23.480Z,109.50
2018-11-09T06:40:54.346Z,99.80
2018-11-09T06:43:24.109Z,98.40
2018-11-09T06:45:54.007Z,116.00
2018-11-09T06:48:23.643Z,102.10
2018-11-09T06:50:54.827Z,93.07
2018-11-09T06:53:24.498Z,109.30
2018-11-09T06:55:53.961Z,89.30
2018-11-09T06:58:24.114Z,105.03
2018-11-09T07:00:53.872Z,86.80
2018-11-09T07:03:23.738Z,89.27
2018-11-09T07:05:53.804Z,94.75
2018-11-09T07:08:24.044Z,106.47
2018-11-09T07:10:54.453Z,107.93
2018-11-09T07:13:24.279Z,89.67
2018-11-09T07:15:54.782Z,98.58
2018-11-09T07:18:25.259Z,102.63
2018-11-09T07:20:55.280Z,104.30
2018-11-09T07:23:25.237Z,110.60
2018-11-09T07:25:55.334Z,94.63
2018-11-09T07:28:24.865Z,117.67
2018-11-09T07:30:55.041Z,92.67
2018-11-09T07:33:25.431Z,100.83
2018-11-09T07:35:56.824Z,107.37
2018-11-09T07:38:26.367Z,98.97
2018-11-09T07:40:57.009Z,84.77
2018-11-09T07:43:27.209Z,90.60
2018-11-09T07:45:56.596Z,87.67
2018-11-09T07:48:26.442Z,90.33
2018-11-09T07:50:56.260Z,89.40
2018-11-09T07:53:26.237Z,85.13
2018-11-09T07:55:57.115Z,73.87
2018-11-09T07:58:26.623Z,79.63
2018-11-09T08:00:56.057Z,89.13
2018-11-09T08:03:25.584Z,78.53
2018-11-09T08:05:55.900Z,80.73
2018-11-09T08:08:26.172Z,77.47
2018-11-09T08:10:56.319Z,84.30
2018-11-09T08:13:26.160Z,70.77
2018-11-09T08:15:55.984Z,82.57
2018-11-09T08:18:25.883Z,94.03
2018-11-09T08:20:55.369Z,84.10
2018-11-09T08:23:24.828Z,76.40
2018-11-09T08:25:54.762Z,82.40
2018-11-09T08:28:24.225Z,70.77
2018-11-09T08:30:53.671Z,70.47
2018-11-09T08:33:23.486Z,68.63
2018-11-09T08:35:52.890Z,71.80
2018-11-09T08:38:22.663Z,73.33
2018-11-09T08:40:52.536Z,75.83
2018-11-09T08:43:22.322Z,67.53
2018-11-09T08:45:52.152Z,73.90
2018-11-09T08:48:22.161Z,79.73
2018-11-09T08:50:52.240Z,59.93
2018-11-09T08:53:21.675Z,77.43
2018-11-09T08:55:51.166Z,70.20
2018-11-09T08:58:20.623Z,76.53
2018-11-09T09:00:50.068Z,82.03
2018-11-09T09:03:19.620Z,71.30
2018-11-09T09:05:49.578Z,74.67
2018-11-09T09:08:19.378Z,69.80
2018-11-09T09:10:49.499Z,76.70
2018-11-09T09:13:19.318Z,72.57
2018-11-09T09:15:48.789Z,73.73
2018-11-09T09:18:18.237Z,73.70
2018-11-09T09:20:47.777Z,62.57
2018-11-09T09:23:17.889Z,65.80
2018-11-09T09:25:47.721Z,69.60
2018-11-09T09:28:17.817Z,70.73
2018-11-09T09:30:47.273Z,64.27
2018-11-09T09:33:17.096Z,75.80
2018-11-09T09:35:46.707Z,75.93
2018-11-09T09:38:16.833Z,68.13
2018-11-09T09:40:46.853Z,68.43
2018-11-09T09:43:17.529Z,67.17
2018-11-09T09:45:48.191Z,92.77
2018-11-09T09:48:18.797Z,76.20
2018-11-09T09:50:48.254Z,68.90
2018-11-09T09:53:17.709Z,86.00
2018-11-09T09:55:47.255Z,81.80
2018-11-09T09:58:17.117Z,82.90
2018-11-09T10:00:46.508Z,87.70
2018-11-09T10:03:15.968Z,92.07
2018-11-09T10:05:45.480Z,81.37
2018-11-09T10:08:15.631Z,78.47
2018-11-09T10:10:45.412Z,82.60
2018-11-09T10:13:14.927Z,86.37
2018-11-09T10:15:44.781Z,78.33
2018-11-09T10:18:14.571Z,88.30
2018-11-09T10:20:44.861Z,81.37
2018-11-09T10:23:14.560Z,91.90
2018-11-09T10:25:44.380Z,94.17
2018-11-09T10:28:14.597Z,93.63
2018-11-09T10:30:44.507Z,88.37
2018-11-09T10:33:14.027Z,83.43
2018-11-09T10:35:43.424Z,92.67
2018-11-09T10:38:13.356Z,86.67
2018-11-09T10:40:43.232Z,86.70
2018-11-09T10:43:12.682Z,91.10
2018-11-09T10:45:42.639Z,86.90
2018-11-09T10:48:12.793Z,84.60
2018-11-09T10:50:42.241Z,90.13
2018-11-09T10:53:12.011Z,90.23
2018-11-09T10:55:41.851Z,98.57
2018-11-09T10:58:11.511Z,95.33
2018-11-09T11:01:04.664Z,92.53
2018-11-09T11:04:02.088Z,91.60
2018-11-09T11:06:31.989Z,97.00
2018-11-09T11:09:02.248Z,85.90
2018-11-09T11:11:32.644Z,95.60
2018-11-09T11:14:02.920Z,95.90
2018-11-09T11:16:32.793Z,88.27
2018-11-09T11:19:02.303Z,93.10
2018-11-09T11:21:32.823Z,93.07
2018-11-09T11:27:47.520Z,103.93
2018-11-09T11:30:17.691Z,85.00
2018-11-09T11:32:47.260Z,84.47
2018-11-09T11:35:16.980Z,78.33
2018-11-09T11:38:05.402Z,97.30
2018-11-09T11:40:54.305Z,84.83
2018-11-09T11:43:24.265Z,92.73
2018-11-09T11:45:53.713Z,94.30
2018-11-09T11:48:24.365Z,93.70
2018-11-09T11:50:54.490Z,91.27
2018-11-09T11:53:24.690Z,85.13
2018-11-09T11:55:54.714Z,98.57
2018-11-09T11:58:24.533Z,95.53
2018-11-09T12:00:54.226Z,101.33
2018-11-09T12:03:24.039Z,94.83
2018-11-09T12:05:54.120Z,89.93
2018-11-09T12:08:24.317Z,102.57
2018-11-09T12:10:53.756Z,91.73
2018-11-09T12:13:23.304Z,85.03
2018-11-09T12:15:53.023Z,90.33
2018-11-09T12:18:23.546Z,87.67
2018-11-09T12:20:53.386Z,84.70
2018-11-09T12:23:22.828Z,90.07
2018-11-09T12:25:52.338Z,89.73
2018-11-09T12:28:21.792Z,106.73
2018-11-09T12:30:51.543Z,83.63
2018-11-09T12:33:21.706Z,101.03
2018-11-09T12:35:51.841Z,94.73
2018-11-09T12:38:21.707Z,81.07
2018-11-09T12:40:50.724Z,82.60
2018-11-09T12:43:20.491Z,87.37
2018-11-09T12:45:51.378Z,85.33
2018-11-09T12:48:21.125Z,83.57
2018-11-09T12:50:50.485Z,82.10
2018-11-09T12:53:20.627Z,71.87
2018-11-09T12:55:50.436Z,69.10
2018-11-09T12:58:20.284Z,89.00
2018-11-09T13:00:50.635Z,67.27
2018-11-09T13:03:19.914Z,79.07
2018-11-09T13:05:49.690Z,68.83
2018-11-09T13:08:19.816Z,61.50
2018-11-09T13:10:49.635Z,71.70
2018-11-09T13:13:20.723Z,68.83
2018-11-09T13:15:50.364Z,68.53
2018-11-09T13:18:19.693Z,65.80
2018-11-09T13:20:49.833Z,79.07
2018-11-09T13:23:19.543Z,74.07
2018-11-09T13:25:49.657Z,73.40
2018-11-09T13:28:19.622Z,77.63
2018-11-09T13:30:49.392Z,73.17
2018-11-09T13:33:19.476Z,77.77
2018-11-09T13:35:49.366Z,72.70
2018-11-09T13:38:19.101Z,68.70
2018-11-09T13:40:48.887Z,73.37
2018-11-09T13:43:18.760Z,66.83
2018-11-09T13:45:49.425Z,70.17
2018-11-09T13:48:19.986Z,78.23
2018-11-09T13:50:49.720Z,79.97
2018-11-09T13:53:19.160Z,77.27
2018-11-09T13:55:48.958Z,89.00
2018-11-09T13:58:19.025Z,85.73
2018-11-09T14:00:48.782Z,69.57
2018-11-09T14:03:18.746Z,83.90
2018-11-09T14:05:48.857Z,83.53
2018-11-09T14:08:18.346Z,84.27
2018-11-09T14:10:48.141Z,83.83
2018-11-09T14:13:17.988Z,82.40
2018-11-09T14:15:47.502Z,81.57
2018-11-09T14:18:17.017Z,71.27
2018-11-09T14:20:47.067Z,70.00
2018-11-09T14:23:16.882Z,74.60
2018-11-09T14:25:47.144Z,87.07
2018-11-09T14:28:17.390Z,77.27
2018-11-09T14:30:47.236Z,78.00
2018-11-09T14:33:17.048Z,69.97
2018-11-09T14:35:46.594Z,67.83
2018-11-09T14:38:15.965Z,73.60
2018-11-09T14:40:45.818Z,74.20
2018-11-09T14:43:15.582Z,77.63
2018-11-09T14:45:45.462Z,85.23
2018-11-09T14:48:14.951Z,81.37
2018-11-09T14:50:44.409Z,80.77
2018-11-09T14:53:13.880Z,82.20
2018-11-09T14:55:43.329Z,80.23
2018-11-09T14:58:13.185Z,86.87
2018-11-09T15:00:42.646Z,78.97
2018-11-09T15:03:12.233Z,94.93
2018-11-09T15:05:41.703Z,89.40
2018-11-09T15:08:11.462Z,88.50
2018-11-09T15:10:41.409Z,90.93
2018-11-09T15:13:11.260Z,92.53
2018-11-09T15:15:41.352Z,94.23
2018-11-09T15:18:11.252Z,89.03
2018-11-09T15:20:40.694Z,85.80
2018-11-09T15:23:10.122Z,102.67
2018-11-09T15:25:39.689Z,85.97
2018-11-09T15:28:09.407Z,90.50
2018-11-09T15:30:38.866Z,113.20
2018-11-09T15:33:08.824Z,116.40
2018-11-09T15:35:38.182Z,181.13
2018-11-09T15:38:07.676Z,205.80
2018-11-09T15:40:37.170Z,221.33
2018-11-09T15:43:07.469Z,215.17
2018-11-09T15:45:37.317Z,136.70
2018-11-09T15:48:06.777Z,168.63
2018-11-09T15:50:36.895Z,139.47
2018-11-09T15:53:06.444Z,139.07
2018-11-09T15:55:36.191Z,139.90
2018-11-09T15:58:05.700Z,134.90
2018-11-09T16:00:35.101Z,148.63
2018-11-09T16:03:04.994Z,172.07
2018-11-09T16:05:34.734Z,177.63
2018-11-09T16:08:04.265Z,162.40
2018-11-09T16:10:34.362Z,139.53
2018-11-09T16:13:04.467Z,146.97
2018-11-09T16:15:33.942Z,140.07
2018-11-09T16:18:03.388Z,137.13
2018-11-09T16:20:32.898Z,146.27
2018-11-09T16:23:02.763Z,140.63
2018-11-09T16:25:32.213Z,127.63
2018-11-09T16:28:02.353Z,131.57
2018-11-09T16:30:31.849Z,125.00
2018-11-09T16:33:01.548Z,116.20
2018-11-09T16:35:31.434Z,120.30
2018-11-09T16:38:01.573Z,175.47
2018-11-09T16:40:31.717Z,183.87
2018-11-09T16:43:01.194Z,152.33
2018-11-09T16:45:31.074Z,145.37
2018-11-09T16:48:00.531Z,137.20
2018-11-09T16:50:30.549Z,119.70
2018-11-09T16:53:00.387Z,109.10
2018-11-09T16:55:30.232Z,116.67
2018-11-09T16:57:59.678Z,84.90
2018-11-09T17:00:29.183Z,99.93
2018-11-09T17:02:58.927Z,82.70
2018-11-09T17:05:29.092Z,81.27
2018-11-09T17:07:58.461Z,84.07
2018-11-09T17:10:27.986Z,70.43
2018-11-09T17:12:57.969Z,77.47
2018-11-09T17:15:27.472Z,86.50
2018-11-09T17:17:57.320Z,61.60
2018-11-09T17:20:27.861Z,71.17
2018-11-09T17:22:57.358Z,87.27
2018-11-09T17:25:27.512Z,65.70
2018-11-09T17:27:57.895Z,66.30
2018-11-09T17:30:27.074Z,68.07
2018-11-09T17:32:57.566Z,68.30
2018-11-09T17:35:27.855Z,69.17
2018-11-09T17:37:57.415Z,65.37
2018-11-09T17:40:26.855Z,83.57
2018-11-09T17:42:56.359Z,65.87
2018-11-09T17:45:26.225Z,71.93
2018-11-09T17:47:56.289Z,69.93
2018-11-09T17:50:25.779Z,73.27
2018-11-09T17:53:13.900Z,72.07
2018-11-09T17:56:02.010Z,75.70
2018-11-09T17:58:51.279Z,67.40
2018-11-09T18:01:39.943Z,70.40
2018-11-09T18:04:09.889Z,80.60
2018-11-09T18:06:39.574Z,77.63
2018-11-09T18:09:16.861Z,80.20
2018-11-09T18:11:46.927Z,69.47
2018-11-09T18:14:35.140Z,66.70
2018-11-09T18:17:23.736Z,71.03
2018-11-09T18:19:53.078Z,67.40
2018-11-09T18:22:22.408Z,85.23
2018-11-09T18:25:10.528Z,63.07
2018-11-09T18:27:59.301Z,66.10
2018-11-09T18:30:47.391Z,75.73
2018-11-09T18:33:35.843Z,61.97
2018-11-09T18:36:24.476Z,70.87
2018-11-09T18:39:12.989Z,78.63
2018-11-09T18:41:42.875Z,80.47
2018-11-09T18:44:13.208Z,80.03
2018-11-09T18:46:42.639Z,67.53
2018-11-09T18:49:12.344Z,74.00
2018-11-09T18:51:41.796Z,63.03
2018-11-09T18:54:11.324Z,69.17
2018-11-09T18:56:59.691Z,65.03
2018-11-09T18:59:29.131Z,83.37
2018-11-09T19:01:58.664Z,71.63
2018-11-09T19:04:47.128Z,71.63
2018-11-09T19:07:17.112Z,83.07
2018-11-09T19:09:46.899Z,73.07
2018-11-09T19:12:35.088Z,76.47
2018-11-09T19:15:04.547Z,69.47
2018-11-09T19:17:52.943Z,81.93
2018-11-09T19:20:22.669Z,91.87
2018-11-09T19:22:52.725Z,87.20
2018-11-09T19:25:22.152Z,90.53
2018-11-09T19:27:51.839Z,96.47
2018-11-09T19:30:22.221Z,86.90
2018-11-09T19:32:52.209Z,85.23
2018-11-09T19:35:21.649Z,90.30
2018-11-09T19:38:10.072Z,87.57
2018-11-09T19:40:39.896Z,97.30
2018-11-09T19:43:28.909Z,105.17
2018-11-09T19:46:17.290Z,133.87
2018-11-09T19:48:48.148Z,122.10
2018-11-09T19:51:18.683Z,115.63
2018-11-09T19:53:49.375Z,110.57
2018-11-09T19:56:19.305Z,116.23
2018-11-09T19:59:08.100Z,115.23
2018-11-09T20:01:37.584Z,111.53
2018-11-09T20:04:07.076Z,109.43
2018-11-09T20:06:37.627Z,111.30
2018-11-09T20:09:27.995Z,114.00
2018-11-09T20:11:57.574Z,123.03
2018-11-09T20:14:27.320Z,105.10
2018-11-09T20:16:57.290Z,114.07
2018-11-09T20:19:26.761Z,103.60
2018-11-09T20:22:15.237Z,118.30
2018-11-09T20:24:44.979Z,123.53
2018-11-09T20:27:15.651Z,144.60
2018-11-09T20:29:46.778Z,136.97
2018-11-09T20:32:16.297Z,124.13
2018-11-09T20:34:46.098Z,125.13
2018-11-09T20:37:15.985Z,125.77
2018-11-09T20:39:46.462Z,120.50
2018-11-09T20:42:16.164Z,117.37
2018-11-09T20:44:46.869Z,129.30
2018-11-09T20:47:35.679Z,129.87
2018-11-09T20:50:05.298Z,123.50
2018-11-09T20:52:35.385Z,128.30
2018-11-09T20:55:04.847Z,115.17
2018-11-09T20:57:35.180Z,117.00
2018-11-09T21:00:05.712Z,115.17
2018-11-09T21:02:35.600Z,115.37
2018-11-09T21:05:24.047Z,125.17
2018-11-09T21:08:12.267Z,115.83
2018-11-09T21:10:41.723Z,121.27
2018-11-09T21:13:11.552Z,122.50
2018-11-09T21:15:40.893Z,118.53
2018-11-09T21:18:10.318Z,128.00
2018-11-09T21:20:40.083Z,114.67
2018-11-09T21:23:09.582Z,123.83
2018-11-09T21:25:58.086Z,124.10
2018-11-09T21:28:27.631Z,119.33
2018-11-09T21:30:57.548Z,125.90
2018-11-09T21:33:26.995Z,126.07
2018-11-09T21:36:15.737Z,140.83
2018-11-09T21:38:45.166Z,132.40
2018-11-09T21:41:15.003Z,136.70
2018-11-09T21:44:03.642Z,131.80
2018-11-09T21:46:33.723Z,119.20
2018-11-09T21:49:22.161Z,122.58
2018-11-09T21:51:51.885Z,132.63
2018-11-09T21:54:21.320Z,126.13
2018-11-09T21:57:10.071Z,135.70
2018-11-09T21:59:39.510Z,124.40
2018-11-09T22:02:09.482Z,128.73
2018-11-09T22:04:39.302Z,130.18
2018-11-09T22:07:27.780Z,113.22
2018-11-09T22:09:57.229Z,129.43
2018-11-09T22:12:27.121Z,117.57
2018-11-09T22:14:56.589Z,123.83
2018-11-09T22:17:26.053Z,116.50
2018-11-09T22:19:56.211Z,123.40
2018-11-09T22:22:26.044Z,138.95
2018-11-09T22:24:55.840Z,120.77
2018-11-09T22:27:25.704Z,134.50
2018-11-09T22:29:55.157Z,125.80
2018-11-09T22:32:24.777Z,133.45
2018-11-09T22:34:54.493Z,144.70
2018-11-09T22:37:24.796Z,127.57
2018-11-09T22:39:54.969Z,141.20
2018-11-09T22:42:25.230Z,120.30
2018-11-09T22:44:56.038Z,137.50
2018-11-09T22:47:25.610Z,129.67
2018-11-09T22:49:55.055Z,112.47
2018-11-09T22:52:24.543Z,126.80
2018-11-09T22:54:54.885Z,146.22
2018-11-09T22:57:24.731Z,137.77
2018-11-09T22:59:55.100Z,132.30
2018-11-09T23:02:24.880Z,144.07
2018-11-09T23:04:55.293Z,128.87
2018-11-09T23:07:25.010Z,141.68
2018-11-09T23:09:54.721Z,132.00
2018-11-09T23:12:24.567Z,135.53
2018-11-09T23:14:54.406Z,134.63
2018-11-09T23:17:24.605Z,157.53
2018-11-09T23:19:54.748Z,139.33
2018-11-09T23:22:24.289Z,140.17
2018-11-09T23:24:54.094Z,137.43
2018-11-09T23:27:24.165Z,146.43
2018-11-09T23:29:54.156Z,149.90
2018-11-09T23:32:23.964Z,139.63
2018-11-09T23:34:53.839Z,147.50
2018-11-09T23:37:24.135Z,160.93
2018-11-09T23:39:54.306Z,154.03
2018-11-09T23:42:24.519Z,137.70
2018-11-09T23:44:54.301Z,165.30
2018-11-09T23:47:24.565Z,152.78
2018-11-09T23:49:54.381Z,157.65
2018-11-09T23:52:24.237Z,164.43
2018-11-09T23:54:53.724Z,152.90
2018-11-09T23:57:23.541Z,169.60
2018-11-09T23:59:53.976Z,164.40
